sensor_id;sensor_type;location;lat;lon;timestamp;temperature;humidity
15357;DHT22;7778;48.792;9.260;2023-12-20T00:01:41;6.90;99.90
15357;DHT22;7778;48.792;9.260;2023-12-20T00:04:28;6.70;99.90
15357;DHT22;7778;48.792;9.260;2023-12-20T00:07:14;6.80;99.90
15357;DHT22;7778;48.792;9.260;2023-12-20T00:09:59;6.80;99.90
15357;DHT22;7778;48.792;9.260;2023-12-20T00:12:45;6.80;99.90
15357;DHT22;7778;48.792;9.260;2023-12-20T00:15:31;6.90;99.90
15357;DHT22;7778;48.792;9.260;2023-12-20T00:18:17;6.90;99.90
15357;DHT22;7778;48.792;9.260;2023-12-20T00:21:04;7.00;99.90
15357;DHT22;7778;48.792;9.260;2023-12-20T00:23:52;6.80;99.90
15357;DHT22;7778;48.792;9.260;2023-12-20T00:26:38;6.90;99.90
15357;DHT22;7778;48.792;9.260;2023-12-20T00:29:24;6.80;99.90
15357;DHT22;7778;48.792;9.260;2023-12-20T00:32:09;6.80;99.90
15357;DHT22;7778;48.792;9.260;2023-12-20T00:34:55;6.80;99.90
15357;DHT22;7778;48.792;9.260;2023-12-20T00:37:42;6.90;99.90
15357;DHT22;7778;48.792;9.260;2023-12-20T00:40:28;7.00;99.90
15357;DHT22;7778;48.792;9.260;2023-12-20T00:43:14;6.90;99.90
15357;DHT22;7778;48.792;9.260;2023-12-20T00:46:01;6.90;99.90
15357;DHT22;7778;48.792;9.260;2023-12-20T00:48:47;6.90;99.90
15357;DHT22;7778;48.792;9.260;2023-12-20T00:51:32;6.90;99.90
15357;DHT22;7778;48.792;9.260;2023-12-20T00:54:19;6.70;99.90
15357;DHT22;7778;48.792;9.260;2023-12-20T00:57:07;6.90;99.90
15357;DHT22;7778;48.792;9.260;2023-12-20T00:59:53;6.70;99.90
15357;DHT22;7778;48.792;9.260;2023-12-20T01:02:38;6.90;99.90
15357;DHT22;7778;48.792;9.260;2023-12-20T01:05:24;6.60;99.90
15357;DHT22;7778;48.792;9.260;2023-12-20T01:08:10;6.50;99.90
15357;DHT22;7778;48.792;9.260;2023-12-20T01:10:57;6.60;99.90
15357;DHT22;7778;48.792;9.260;2023-12-20T01:13:42;6.60;99.90
15357;DHT22;7778;48.792;9.260;2023-12-20T01:16:28;6.60;99.90
15357;DHT22;7778;48.792;9.260;2023-12-20T01:19:13;6.80;99.90
15357;DHT22;7778;48.792;9.260;2023-12-20T01:22:00;6.90;99.90
15357;DHT22;7778;48.792;9.260;2023-12-20T01:24:45;7.00;99.90
15357;DHT22;7778;48.792;9.260;2023-12-20T01:27:32;6.90;99.90
15357;DHT22;7778;48.792;9.260;2023-12-20T01:30:18;6.80;99.90
15357;DHT22;7778;48.792;9.260;2023-12-20T01:33:04;6.90;99.90
15357;DHT22;7778;48.792;9.260;2023-12-20T01:35:50;7.00;99.90
15357;DHT22;7778;48.792;9.260;2023-12-20T01:38:35;7.10;99.90
15357;DHT22;7778;48.792;9.260;2023-12-20T01:41:23;7.00;99.90
15357;DHT22;7778;48.792;9.260;2023-12-20T01:44:10;7.00;99.90
15357;DHT22;7778;48.792;9.260;2023-12-20T01:46:55;6.90;99.90
15357;DHT22;7778;48.792;9.260;2023-12-20T01:49:41;6.70;99.90
15357;DHT22;7778;48.792;9.260;2023-12-20T01:52:27;6.60;99.90
15357;DHT22;7778;48.792;9.260;2023-12-20T01:55:13;6.70;99.90
15357;DHT22;7778;48.792;9.260;2023-12-20T01:57:59;6.60;99.90
15357;DHT22;7778;48.792;9.260;2023-12-20T02:00:46;6.70;99.90
15357;DHT22;7778;48.792;9.260;2023-12-20T02:03:32;6.70;99.90
15357;DHT22;7778;48.792;9.260;2023-12-20T02:06:22;6.70;99.90
15357;DHT22;7778;48.792;9.260;2023-12-20T02:09:08;6.80;99.90
15357;DHT22;7778;48.792;9.260;2023-12-20T02:11:54;6.80;99.90
15357;DHT22;7778;48.792;9.260;2023-12-20T02:14:40;6.90;99.90
15357;DHT22;7778;48.792;9.260;2023-12-20T02:17:27;6.90;99.90
15357;DHT22;7778;48.792;9.260;2023-12-20T02:20:13;7.00;99.90
15357;DHT22;7778;48.792;9.260;2023-12-20T02:23:00;6.90;99.90
15357;DHT22;7778;48.792;9.260;2023-12-20T02:25:46;6.90;99.90
15357;DHT22;7778;48.792;9.260;2023-12-20T02:28:32;6.80;99.90
15357;DHT22;7778;48.792;9.260;2023-12-20T02:31:20;6.80;99.90
15357;DHT22;7778;48.792;9.260;2023-12-20T02:34:06;6.80;99.90
15357;DHT22;7778;48.792;9.260;2023-12-20T02:36:52;6.90;99.90
15357;DHT22;7778;48.792;9.260;2023-12-20T02:39:39;6.90;99.90
15357;DHT22;7778;48.792;9.260;2023-12-20T02:42:24;6.90;99.90
15357;DHT22;7778;48.792;9.260;2023-12-20T02:45:10;6.90;99.90
15357;DHT22;7778;48.792;9.260;2023-12-20T02:47:55;6.90;99.90
15357;DHT22;7778;48.792;9.260;2023-12-20T02:50:41;6.90;99.90
15357;DHT22;7778;48.792;9.260;2023-12-20T02:53:26;6.80;99.90
15357;DHT22;7778;48.792;9.260;2023-12-20T02:56:16;6.70;99.90
15357;DHT22;7778;48.792;9.260;2023-12-20T02:59:01;6.70;99.90
15357;DHT22;7778;48.792;9.260;2023-12-20T03:01:49;6.70;99.90
15357;DHT22;7778;48.792;9.260;2023-12-20T03:04:35;6.70;99.90
15357;DHT22;7778;48.792;9.260;2023-12-20T03:07:20;6.80;99.90
15357;DHT22;7778;48.792;9.260;2023-12-20T03:10:08;6.80;99.90
15357;DHT22;7778;48.792;9.260;2023-12-20T03:12:55;6.90;99.90
15357;DHT22;7778;48.792;9.260;2023-12-20T03:15:41;6.80;99.90
15357;DHT22;7778;48.792;9.260;2023-12-20T03:18:26;6.70;99.90
15357;DHT22;7778;48.792;9.260;2023-12-20T03:21:13;6.60;99.90
15357;DHT22;7778;48.792;9.260;2023-12-20T03:23:58;6.50;99.90
15357;DHT22;7778;48.792;9.260;2023-12-20T03:26:46;6.60;99.90
15357;DHT22;7778;48.792;9.260;2023-12-20T03:29:34;6.70;99.90
15357;DHT22;7778;48.792;9.260;2023-12-20T03:32:19;6.70;99.90
15357;DHT22;7778;48.792;9.260;2023-12-20T03:35:05;6.70;99.90
15357;DHT22;7778;48.792;9.260;2023-12-20T03:37:51;6.50;99.90
15357;DHT22;7778;48.792;9.260;2023-12-20T03:40:37;6.40;99.90
15357;DHT22;7778;48.792;9.260;2023-12-20T03:43:22;6.40;99.90
15357;DHT22;7778;48.792;9.260;2023-12-20T03:46:09;6.40;99.90
15357;DHT22;7778;48.792;9.260;2023-12-20T03:48:57;6.30;99.90
15357;DHT22;7778;48.792;9.260;2023-12-20T03:51:46;6.20;99.90
15357;DHT22;7778;48.792;9.260;2023-12-20T03:54:40;6.20;99.90
15357;DHT22;7778;48.792;9.260;2023-12-20T03:57:26;6.20;99.90
15357;DHT22;7778;48.792;9.260;2023-12-20T04:00:12;6.20;99.90
15357;DHT22;7778;48.792;9.260;2023-12-20T04:02:59;6.20;99.90
15357;DHT22;7778;48.792;9.260;2023-12-20T04:05:45;6.10;99.90
15357;DHT22;7778;48.792;9.260;2023-12-20T04:08:30;6.10;99.90
15357;DHT22;7778;48.792;9.260;2023-12-20T04:11:16;6.20;99.90
15357;DHT22;7778;48.792;9.260;2023-12-20T04:14:01;6.30;99.90
15357;DHT22;7778;48.792;9.260;2023-12-20T04:16:48;6.10;99.90
15357;DHT22;7778;48.792;9.260;2023-12-20T04:19:35;6.10;99.90
15357;DHT22;7778;48.792;9.260;2023-12-20T04:22:21;6.00;99.90
15357;DHT22;7778;48.792;9.260;2023-12-20T04:25:07;5.90;99.90
15357;DHT22;7778;48.792;9.260;2023-12-20T04:27:53;6.00;99.90
15357;DHT22;7778;48.792;9.260;2023-12-20T04:30:39;6.00;99.90
15357;DHT22;7778;48.792;9.260;2023-12-20T04:33:24;6.30;99.90
15357;DHT22;7778;48.792;9.260;2023-12-20T04:36:11;6.10;99.90
15357;DHT22;7778;48.792;9.260;2023-12-20T04:38:57;6.00;99.90
15357;DHT22;7778;48.792;9.260;2023-12-20T04:41:43;5.90;99.90
15357;DHT22;7778;48.792;9.260;2023-12-20T04:44:29;5.90;99.90
15357;DHT22;7778;48.792;9.260;2023-12-20T04:47:14;6.00;99.90
15357;DHT22;7778;48.792;9.260;2023-12-20T04:50:00;6.00;99.90
15357;DHT22;7778;48.792;9.260;2023-12-20T04:52:47;5.90;99.90
15357;DHT22;7778;48.792;9.260;2023-12-20T04:55:33;6.00;99.90
15357;DHT22;7778;48.792;9.260;2023-12-20T04:58:21;6.00;99.90
15357;DHT22;7778;48.792;9.260;2023-12-20T05:01:09;5.90;99.90
15357;DHT22;7778;48.792;9.260;2023-12-20T05:03:55;6.00;99.90
15357;DHT22;7778;48.792;9.260;2023-12-20T05:06:40;6.10;99.90
15357;DHT22;7778;48.792;9.260;2023-12-20T05:09:27;6.20;99.90
15357;DHT22;7778;48.792;9.260;2023-12-20T05:12:12;6.20;99.90
15357;DHT22;7778;48.792;9.260;2023-12-20T05:14:58;6.20;99.90
15357;DHT22;7778;48.792;9.260;2023-12-20T05:17:46;6.10;99.90
15357;DHT22;7778;48.792;9.260;2023-12-20T05:20:33;6.10;99.90
15357;DHT22;7778;48.792;9.260;2023-12-20T05:23:19;6.20;99.90
15357;DHT22;7778;48.792;9.260;2023-12-20T05:26:07;6.30;99.90
15357;DHT22;7778;48.792;9.260;2023-12-20T05:28:52;6.30;99.90
15357;DHT22;7778;48.792;9.260;2023-12-20T05:31:38;6.30;99.90
15357;DHT22;7778;48.792;9.260;2023-12-20T05:34:23;6.40;99.90
15357;DHT22;7778;48.792;9.260;2023-12-20T05:37:09;6.30;99.90
15357;DHT22;7778;48.792;9.260;2023-12-20T05:39:55;6.30;99.90
15357;DHT22;7778;48.792;9.260;2023-12-20T05:42:42;6.30;99.90
15357;DHT22;7778;48.792;9.260;2023-12-20T05:45:28;6.10;99.90
15357;DHT22;7778;48.792;9.260;2023-12-20T05:48:15;6.10;99.90
15357;DHT22;7778;48.792;9.260;2023-12-20T05:51:00;6.20;99.90
15357;DHT22;7778;48.792;9.260;2023-12-20T05:53:46;6.10;99.90
15357;DHT22;7778;48.792;9.260;2023-12-20T05:56:34;6.10;99.90
15357;DHT22;7778;48.792;9.260;2023-12-20T05:59:20;6.10;99.90
15357;DHT22;7778;48.792;9.260;2023-12-20T06:02:06;6.10;99.90
15357;DHT22;7778;48.792;9.260;2023-12-20T06:04:52;6.10;99.90
15357;DHT22;7778;48.792;9.260;2023-12-20T06:07:38;5.90;99.90
15357;DHT22;7778;48.792;9.260;2023-12-20T06:10:24;5.90;99.90
15357;DHT22;7778;48.792;9.260;2023-12-20T06:13:10;5.90;99.90
15357;DHT22;7778;48.792;9.260;2023-12-20T06:15:58;6.00;99.90
15357;DHT22;7778;48.792;9.260;2023-12-20T06:18:43;5.90;99.90
15357;DHT22;7778;48.792;9.260;2023-12-20T06:21:29;5.90;99.90
15357;DHT22;7778;48.792;9.260;2023-12-20T06:24:15;5.90;99.90
15357;DHT22;7778;48.792;9.260;2023-12-20T06:27:00;6.00;99.90
15357;DHT22;7778;48.792;9.260;2023-12-20T06:29:46;5.90;99.90
15357;DHT22;7778;48.792;9.260;2023-12-20T06:32:32;6.10;99.90
15357;DHT22;7778;48.792;9.260;2023-12-20T06:35:18;5.90;99.90
15357;DHT22;7778;48.792;9.260;2023-12-20T06:38:04;6.10;99.90
15357;DHT22;7778;48.792;9.260;2023-12-20T06:40:49;6.00;99.90
15357;DHT22;7778;48.792;9.260;2023-12-20T06:43:35;6.00;99.90
15357;DHT22;7778;48.792;9.260;2023-12-20T06:46:20;6.20;99.90
15357;DHT22;7778;48.792;9.260;2023-12-20T06:49:07;6.00;99.90
15357;DHT22;7778;48.792;9.260;2023-12-20T06:51:53;6.00;99.90
15357;DHT22;7778;48.792;9.260;2023-12-20T06:54:38;6.10;99.90
15357;DHT22;7778;48.792;9.260;2023-12-20T06:57:24;6.10;99.90
15357;DHT22;7778;48.792;9.260;2023-12-20T07:00:11;6.30;99.90
15357;DHT22;7778;48.792;9.260;2023-12-20T07:02:58;6.10;99.90
15357;DHT22;7778;48.792;9.260;2023-12-20T07:05:45;6.20;99.90
15357;DHT22;7778;48.792;9.260;2023-12-20T07:08:30;6.30;99.90
15357;DHT22;7778;48.792;9.260;2023-12-20T07:11:15;6.40;99.90
15357;DHT22;7778;48.792;9.260;2023-12-20T07:14:01;6.40;99.90
15357;DHT22;7778;48.792;9.260;2023-12-20T07:16:47;6.40;99.90
15357;DHT22;7778;48.792;9.260;2023-12-20T07:19:32;6.50;99.90
15357;DHT22;7778;48.792;9.260;2023-12-20T07:22:19;6.60;99.90
15357;DHT22;7778;48.792;9.260;2023-12-20T07:25:05;6.60;99.90
15357;DHT22;7778;48.792;9.260;2023-12-20T07:27:52;6.40;99.90
15357;DHT22;7778;48.792;9.260;2023-12-20T07:30:37;6.40;99.90
15357;DHT22;7778;48.792;9.260;2023-12-20T07:33:23;6.40;99.90
15357;DHT22;7778;48.792;9.260;2023-12-20T07:36:08;6.20;99.90
15357;DHT22;7778;48.792;9.260;2023-12-20T07:38:55;6.10;99.90
15357;DHT22;7778;48.792;9.260;2023-12-20T07:41:41;6.00;99.90
15357;DHT22;7778;48.792;9.260;2023-12-20T07:44:26;6.00;99.90
15357;DHT22;7778;48.792;9.260;2023-12-20T07:47:11;6.00;99.90
15357;DHT22;7778;48.792;9.260;2023-12-20T07:50:00;5.90;99.90
15357;DHT22;7778;48.792;9.260;2023-12-20T07:52:46;5.90;99.90
15357;DHT22;7778;48.792;9.260;2023-12-20T07:55:33;5.80;99.90
15357;DHT22;7778;48.792;9.260;2023-12-20T07:58:18;5.90;99.90
15357;DHT22;7778;48.792;9.260;2023-12-20T08:01:03;5.80;99.90
15357;DHT22;7778;48.792;9.260;2023-12-20T08:03:58;5.90;99.90
15357;DHT22;7778;48.792;9.260;2023-12-20T08:06:44;5.80;99.90
15357;DHT22;7778;48.792;9.260;2023-12-20T08:09:29;5.80;99.90
15357;DHT22;7778;48.792;9.260;2023-12-20T08:12:17;5.70;99.90
15357;DHT22;7778;48.792;9.260;2023-12-20T08:15:03;5.60;99.90
15357;DHT22;7778;48.792;9.260;2023-12-20T08:17:50;5.60;99.90
15357;DHT22;7778;48.792;9.260;2023-12-20T08:20:36;5.60;99.90
15357;DHT22;7778;48.792;9.260;2023-12-20T08:23:21;5.50;99.90
15357;DHT22;7778;48.792;9.260;2023-12-20T08:26:08;5.50;99.90
15357;DHT22;7778;48.792;9.260;2023-12-20T08:28:55;5.40;99.90
15357;DHT22;7778;48.792;9.260;2023-12-20T08:31:41;5.40;99.90
15357;DHT22;7778;48.792;9.260;2023-12-20T08:34:26;5.40;99.90
15357;DHT22;7778;48.792;9.260;2023-12-20T08:37:12;5.40;99.90
15357;DHT22;7778;48.792;9.260;2023-12-20T08:39:57;5.40;99.90
15357;DHT22;7778;48.792;9.260;2023-12-20T08:42:43;5.40;99.90
15357;DHT22;7778;48.792;9.260;2023-12-20T08:45:29;5.40;99.90
15357;DHT22;7778;48.792;9.260;2023-12-20T08:48:15;5.30;99.90
15357;DHT22;7778;48.792;9.260;2023-12-20T08:51:01;5.40;99.90
15357;DHT22;7778;48.792;9.260;2023-12-20T08:53:46;5.30;99.90
15357;DHT22;7778;48.792;9.260;2023-12-20T08:56:32;5.10;99.90
15357;DHT22;7778;48.792;9.260;2023-12-20T08:59:17;5.00;99.90
15357;DHT22;7778;48.792;9.260;2023-12-20T09:02:05;5.00;99.90
15357;DHT22;7778;48.792;9.260;2023-12-20T09:04:51;5.00;99.90
15357;DHT22;7778;48.792;9.260;2023-12-20T09:07:36;5.00;99.90
15357;DHT22;7778;48.792;9.260;2023-12-20T09:10:22;5.10;99.90
15357;DHT22;7778;48.792;9.260;2023-12-20T09:13:07;5.10;99.90
15357;DHT22;7778;48.792;9.260;2023-12-20T09:15:53;5.10;99.90
15357;DHT22;7778;48.792;9.260;2023-12-20T09:18:40;5.10;99.90
15357;DHT22;7778;48.792;9.260;2023-12-20T09:21:26;5.10;99.90
15357;DHT22;7778;48.792;9.260;2023-12-20T09:24:11;5.10;99.90
15357;DHT22;7778;48.792;9.260;2023-12-20T09:26:57;5.10;99.90
15357;DHT22;7778;48.792;9.260;2023-12-20T09:29:43;5.10;99.90
15357;DHT22;7778;48.792;9.260;2023-12-20T09:32:29;5.30;99.90
15357;DHT22;7778;48.792;9.260;2023-12-20T09:35:16;5.20;99.90
15357;DHT22;7778;48.792;9.260;2023-12-20T09:38:01;5.20;99.90
15357;DHT22;7778;48.792;9.260;2023-12-20T09:40:48;5.30;99.90
15357;DHT22;7778;48.792;9.260;2023-12-20T09:43:37;5.30;99.90
15357;DHT22;7778;48.792;9.260;2023-12-20T09:46:24;5.40;99.90
15357;DHT22;7778;48.792;9.260;2023-12-20T09:49:13;5.50;99.90
15357;DHT22;7778;48.792;9.260;2023-12-20T09:52:01;6.10;99.90
15357;DHT22;7778;48.792;9.260;2023-12-20T09:54:48;7.30;99.90
15357;DHT22;7778;48.792;9.260;2023-12-20T09:57:34;8.10;99.90
15357;DHT22;7778;48.792;9.260;2023-12-20T10:00:20;9.40;99.90
15357;DHT22;7778;48.792;9.260;2023-12-20T10:03:06;10.20;99.90
15357;DHT22;7778;48.792;9.260;2023-12-20T10:05:54;10.30;99.90
15357;DHT22;7778;48.792;9.260;2023-12-20T10:08:43;10.70;99.90
15357;DHT22;7778;48.792;9.260;2023-12-20T10:11:29;10.40;99.90
15357;DHT22;7778;48.792;9.260;2023-12-20T10:14:14;9.80;99.90
15357;DHT22;7778;48.792;9.260;2023-12-20T10:17:03;9.80;99.90
15357;DHT22;7778;48.792;9.260;2023-12-20T10:19:49;10.30;99.90
15357;DHT22;7778;48.792;9.260;2023-12-20T10:22:35;11.40;99.90
15357;DHT22;7778;48.792;9.260;2023-12-20T10:25:23;11.90;99.90
15357;DHT22;7778;48.792;9.260;2023-12-20T10:28:10;11.90;99.90
15357;DHT22;7778;48.792;9.260;2023-12-20T10:30:57;11.00;99.90
15357;DHT22;7778;48.792;9.260;2023-12-20T10:33:44;9.90;99.90
15357;DHT22;7778;48.792;9.260;2023-12-20T10:36:32;8.50;99.90
15357;DHT22;7778;48.792;9.260;2023-12-20T10:39:17;7.70;99.90
15357;DHT22;7778;48.792;9.260;2023-12-20T10:42:05;7.20;99.90
15357;DHT22;7778;48.792;9.260;2023-12-20T10:44:52;6.90;99.90
15357;DHT22;7778;48.792;9.260;2023-12-20T10:47:39;6.90;99.90
15357;DHT22;7778;48.792;9.260;2023-12-20T10:50:26;6.70;99.90
15357;DHT22;7778;48.792;9.260;2023-12-20T10:53:14;6.60;99.90
15357;DHT22;7778;48.792;9.260;2023-12-20T10:56:03;6.50;99.90
15357;DHT22;7778;48.792;9.260;2023-12-20T10:58:50;6.50;99.90
15357;DHT22;7778;48.792;9.260;2023-12-20T11:01:37;6.50;99.90
15357;DHT22;7778;48.792;9.260;2023-12-20T11:04:28;6.50;99.90
15357;DHT22;7778;48.792;9.260;2023-12-20T11:07:23;6.40;99.90
15357;DHT22;7778;48.792;9.260;2023-12-20T11:10:14;6.40;99.90
15357;DHT22;7778;48.792;9.260;2023-12-20T11:13:10;6.20;99.90
15357;DHT22;7778;48.792;9.260;2023-12-20T11:16:01;6.20;99.90
15357;DHT22;7778;48.792;9.260;2023-12-20T11:18:50;6.30;99.90
15357;DHT22;7778;48.792;9.260;2023-12-20T11:21:36;6.60;99.90
15357;DHT22;7778;48.792;9.260;2023-12-20T11:24:22;6.80;99.90
15357;DHT22;7778;48.792;9.260;2023-12-20T11:27:08;7.00;99.90
15357;DHT22;7778;48.792;9.260;2023-12-20T11:29:56;6.90;99.90
15357;DHT22;7778;48.792;9.260;2023-12-20T11:32:46;6.90;99.90
15357;DHT22;7778;48.792;9.260;2023-12-20T11:35:31;6.90;99.90
15357;DHT22;7778;48.792;9.260;2023-12-20T11:38:20;6.90;99.90
15357;DHT22;7778;48.792;9.260;2023-12-20T11:41:11;6.70;99.90
15357;DHT22;7778;48.792;9.260;2023-12-20T11:43:56;6.70;99.90
15357;DHT22;7778;48.792;9.260;2023-12-20T11:46:42;6.70;99.90
15357;DHT22;7778;48.792;9.260;2023-12-20T11:49:29;6.70;99.90
15357;DHT22;7778;48.792;9.260;2023-12-20T11:52:15;6.50;99.90
15357;DHT22;7778;48.792;9.260;2023-12-20T11:55:00;6.40;99.90
15357;DHT22;7778;48.792;9.260;2023-12-20T11:57:47;6.50;99.90
15357;DHT22;7778;48.792;9.260;2023-12-20T12:00:33;6.50;99.90
15357;DHT22;7778;48.792;9.260;2023-12-20T12:03:18;6.60;99.90
15357;DHT22;7778;48.792;9.260;2023-12-20T12:06:06;6.30;99.90
15357;DHT22;7778;48.792;9.260;2023-12-20T12:08:51;6.30;99.90
15357;DHT22;7778;48.792;9.260;2023-12-20T12:11:37;6.30;99.90
15357;DHT22;7778;48.792;9.260;2023-12-20T12:14:23;6.30;99.90
15357;DHT22;7778;48.792;9.260;2023-12-20T12:17:12;6.30;99.90
15357;DHT22;7778;48.792;9.260;2023-12-20T12:20:03;6.40;99.90
15357;DHT22;7778;48.792;9.260;2023-12-20T12:22:59;6.40;99.90
15357;DHT22;7778;48.792;9.260;2023-12-20T12:25:45;6.50;99.90
15357;DHT22;7778;48.792;9.260;2023-12-20T12:28:30;6.60;99.90
15357;DHT22;7778;48.792;9.260;2023-12-20T12:31:16;6.60;99.90
15357;DHT22;7778;48.792;9.260;2023-12-20T12:34:02;6.70;99.90
15357;DHT22;7778;48.792;9.260;2023-12-20T12:36:48;6.80;99.90
15357;DHT22;7778;48.792;9.260;2023-12-20T12:39:35;6.80;99.90
15357;DHT22;7778;48.792;9.260;2023-12-20T12:42:21;7.00;99.90
15357;DHT22;7778;48.792;9.260;2023-12-20T12:45:09;6.90;99.90
15357;DHT22;7778;48.792;9.260;2023-12-20T12:47:56;7.00;99.90
15357;DHT22;7778;48.792;9.260;2023-12-20T12:50:42;7.00;99.90
15357;DHT22;7778;48.792;9.260;2023-12-20T12:53:27;7.00;99.90
15357;DHT22;7778;48.792;9.260;2023-12-20T12:56:14;7.30;99.90
15357;DHT22;7778;48.792;9.260;2023-12-20T12:59:00;7.30;99.90
15357;DHT22;7778;48.792;9.260;2023-12-20T13:01:46;7.40;99.90
15357;DHT22;7778;48.792;9.260;2023-12-20T13:04:32;7.40;99.90
15357;DHT22;7778;48.792;9.260;2023-12-20T13:07:18;7.20;99.90
15357;DHT22;7778;48.792;9.260;2023-12-20T13:10:04;7.20;99.90
15357;DHT22;7778;48.792;9.260;2023-12-20T13:12:51;7.00;99.90
15357;DHT22;7778;48.792;9.260;2023-12-20T13:15:37;6.80;99.90
15357;DHT22;7778;48.792;9.260;2023-12-20T13:18:23;6.80;99.90
15357;DHT22;7778;48.792;9.260;2023-12-20T13:21:08;6.80;99.90
15357;DHT22;7778;48.792;9.260;2023-12-20T13:23:54;6.80;99.90
15357;DHT22;7778;48.792;9.260;2023-12-20T13:26:39;6.70;99.90
15357;DHT22;7778;48.792;9.260;2023-12-20T13:29:26;6.60;99.90
15357;DHT22;7778;48.792;9.260;2023-12-20T13:32:12;6.60;99.90
15357;DHT22;7778;48.792;9.260;2023-12-20T13:34:58;6.80;99.90
15357;DHT22;7778;48.792;9.260;2023-12-20T13:37:44;6.80;99.90
15357;DHT22;7778;48.792;9.260;2023-12-20T13:40:29;6.90;99.90
15357;DHT22;7778;48.792;9.260;2023-12-20T13:43:15;7.00;99.90
15357;DHT22;7778;48.792;9.260;2023-12-20T13:46:06;7.00;99.90
15357;DHT22;7778;48.792;9.260;2023-12-20T13:48:52;6.90;99.90
15357;DHT22;7778;48.792;9.260;2023-12-20T13:51:37;6.90;99.90
15357;DHT22;7778;48.792;9.260;2023-12-20T13:54:24;6.80;99.90
15357;DHT22;7778;48.792;9.260;2023-12-20T13:57:09;6.80;99.90
15357;DHT22;7778;48.792;9.260;2023-12-20T13:59:55;6.70;99.90
15357;DHT22;7778;48.792;9.260;2023-12-20T14:02:43;6.80;99.90
15357;DHT22;7778;48.792;9.260;2023-12-20T14:05:31;6.70;99.90
15357;DHT22;7778;48.792;9.260;2023-12-20T14:08:17;6.70;99.90
15357;DHT22;7778;48.792;9.260;2023-12-20T14:11:03;6.50;99.90
15357;DHT22;7778;48.792;9.260;2023-12-20T14:13:49;6.50;99.90
15357;DHT22;7778;48.792;9.260;2023-12-20T14:16:34;6.40;99.90
15357;DHT22;7778;48.792;9.260;2023-12-20T14:19:21;6.30;99.90
15357;DHT22;7778;48.792;9.260;2023-12-20T14:22:07;6.50;99.90
15357;DHT22;7778;48.792;9.260;2023-12-20T14:24:53;6.50;99.90
15357;DHT22;7778;48.792;9.260;2023-12-20T14:27:39;6.50;99.90
15357;DHT22;7778;48.792;9.260;2023-12-20T14:30:27;6.40;99.90
15357;DHT22;7778;48.792;9.260;2023-12-20T14:33:13;6.40;99.90
15357;DHT22;7778;48.792;9.260;2023-12-20T14:36:00;6.30;99.90
15357;DHT22;7778;48.792;9.260;2023-12-20T14:38:46;6.50;99.90
15357;DHT22;7778;48.792;9.260;2023-12-20T14:41:34;6.30;99.90
15357;DHT22;7778;48.792;9.260;2023-12-20T14:44:19;6.20;99.90
15357;DHT22;7778;48.792;9.260;2023-12-20T14:47:05;6.10;99.90
15357;DHT22;7778;48.792;9.260;2023-12-20T14:49:51;6.10;99.90
15357;DHT22;7778;48.792;9.260;2023-12-20T14:52:38;6.10;99.90
15357;DHT22;7778;48.792;9.260;2023-12-20T14:55:24;6.10;99.90
15357;DHT22;7778;48.792;9.260;2023-12-20T14:58:11;5.90;99.90
15357;DHT22;7778;48.792;9.260;2023-12-20T15:01:00;6.00;99.90
15357;DHT22;7778;48.792;9.260;2023-12-20T15:03:46;6.10;99.90
15357;DHT22;7778;48.792;9.260;2023-12-20T15:06:32;6.00;99.90
15357;DHT22;7778;48.792;9.260;2023-12-20T15:09:19;5.90;99.90
15357;DHT22;7778;48.792;9.260;2023-12-20T15:12:05;5.90;99.90
15357;DHT22;7778;48.792;9.260;2023-12-20T15:14:51;5.90;99.90
15357;DHT22;7778;48.792;9.260;2023-12-20T15:17:37;5.90;99.90
15357;DHT22;7778;48.792;9.260;2023-12-20T15:20:22;5.90;99.90
15357;DHT22;7778;48.792;9.260;2023-12-20T15:23:09;6.00;99.90
15357;DHT22;7778;48.792;9.260;2023-12-20T15:25:56;5.90;99.90
15357;DHT22;7778;48.792;9.260;2023-12-20T15:28:41;5.90;99.90
15357;DHT22;7778;48.792;9.260;2023-12-20T15:31:27;5.90;99.90
15357;DHT22;7778;48.792;9.260;2023-12-20T15:34:14;5.90;99.90
15357;DHT22;7778;48.792;9.260;2023-12-20T15:37:00;5.90;99.90
15357;DHT22;7778;48.792;9.260;2023-12-20T15:39:45;6.00;99.90
15357;DHT22;7778;48.792;9.260;2023-12-20T15:42:32;5.90;99.90
15357;DHT22;7778;48.792;9.260;2023-12-20T15:45:20;5.70;99.90
15357;DHT22;7778;48.792;9.260;2023-12-20T15:48:06;5.70;99.90
15357;DHT22;7778;48.792;9.260;2023-12-20T15:50:53;5.70;99.90
15357;DHT22;7778;48.792;9.260;2023-12-20T15:53:39;5.60;99.90
15357;DHT22;7778;48.792;9.260;2023-12-20T15:56:24;5.60;99.90
15357;DHT22;7778;48.792;9.260;2023-12-20T15:59:14;5.70;99.90
15357;DHT22;7778;48.792;9.260;2023-12-20T16:02:00;5.70;99.90
15357;DHT22;7778;48.792;9.260;2023-12-20T16:04:46;5.60;99.90
15357;DHT22;7778;48.792;9.260;2023-12-20T16:07:32;5.70;99.90
15357;DHT22;7778;48.792;9.260;2023-12-20T16:10:18;5.70;99.90
15357;DHT22;7778;48.792;9.260;2023-12-20T16:13:04;5.70;99.90
15357;DHT22;7778;48.792;9.260;2023-12-20T16:15:51;5.60;99.90
15357;DHT22;7778;48.792;9.260;2023-12-20T16:18:38;5.60;99.90
15357;DHT22;7778;48.792;9.260;2023-12-20T16:21:23;5.50;99.90
15357;DHT22;7778;48.792;9.260;2023-12-20T16:24:09;5.50;99.90
15357;DHT22;7778;48.792;9.260;2023-12-20T16:26:54;5.70;99.90
15357;DHT22;7778;48.792;9.260;2023-12-20T16:29:40;5.50;99.90
15357;DHT22;7778;48.792;9.260;2023-12-20T16:32:27;5.50;99.90
15357;DHT22;7778;48.792;9.260;2023-12-20T16:35:12;5.50;99.90
15357;DHT22;7778;48.792;9.260;2023-12-20T16:37:58;5.50;99.90
15357;DHT22;7778;48.792;9.260;2023-12-20T16:40:43;5.50;99.90
15357;DHT22;7778;48.792;9.260;2023-12-20T16:43:29;5.40;99.90
15357;DHT22;7778;48.792;9.260;2023-12-20T16:46:14;5.40;99.90
15357;DHT22;7778;48.792;9.260;2023-12-20T16:49:01;5.40;99.90
15357;DHT22;7778;48.792;9.260;2023-12-20T16:51:47;5.40;99.90
15357;DHT22;7778;48.792;9.260;2023-12-20T16:54:32;5.20;99.90
15357;DHT22;7778;48.792;9.260;2023-12-20T16:57:19;5.30;99.90
15357;DHT22;7778;48.792;9.260;2023-12-20T17:00:06;5.20;99.90
15357;DHT22;7778;48.792;9.260;2023-12-20T17:02:52;5.20;99.90
15357;DHT22;7778;48.792;9.260;2023-12-20T17:05:39;5.30;99.90
15357;DHT22;7778;48.792;9.260;2023-12-20T17:08:25;5.20;99.90
15357;DHT22;7778;48.792;9.260;2023-12-20T17:11:10;5.30;99.90
15357;DHT22;7778;48.792;9.260;2023-12-20T17:13:56;5.30;99.90
15357;DHT22;7778;48.792;9.260;2023-12-20T17:16:42;5.30;99.90
15357;DHT22;7778;48.792;9.260;2023-12-20T17:19:27;5.40;99.90
15357;DHT22;7778;48.792;9.260;2023-12-20T17:22:15;5.30;99.90
15357;DHT22;7778;48.792;9.260;2023-12-20T17:25:01;5.30;99.90
15357;DHT22;7778;48.792;9.260;2023-12-20T17:27:48;5.30;99.90
15357;DHT22;7778;48.792;9.260;2023-12-20T17:30:33;5.30;99.90
15357;DHT22;7778;48.792;9.260;2023-12-20T17:33:19;5.20;99.90
15357;DHT22;7778;48.792;9.260;2023-12-20T17:36:05;5.20;99.90
15357;DHT22;7778;48.792;9.260;2023-12-20T17:38:53;5.30;99.90
15357;DHT22;7778;48.792;9.260;2023-12-20T17:41:38;5.20;99.90
15357;DHT22;7778;48.792;9.260;2023-12-20T17:44:24;5.20;99.90
15357;DHT22;7778;48.792;9.260;2023-12-20T17:47:09;5.20;99.90
15357;DHT22;7778;48.792;9.260;2023-12-20T17:49:55;5.20;99.90
15357;DHT22;7778;48.792;9.260;2023-12-20T17:52:41;5.20;99.90
15357;DHT22;7778;48.792;9.260;2023-12-20T17:55:29;5.30;99.90
15357;DHT22;7778;48.792;9.260;2023-12-20T17:58:14;5.30;99.90
15357;DHT22;7778;48.792;9.260;2023-12-20T18:01:00;5.40;99.90
15357;DHT22;7778;48.792;9.260;2023-12-20T18:03:45;5.40;99.90
15357;DHT22;7778;48.792;9.260;2023-12-20T18:06:31;5.30;99.90